Pagrindinis puslapis
METAR-TAF:

METAR-TAF

Oro uostai :

Kairas, Egiptas

platuma: 30-08N, ilguma: 031-24E, Aukštis: 64 m

Dabartinis oras

Ataskaita buvo paskelbta 29 minutes, ne 18:00 UTC
Vėjas 13 kt iš Šiaurės/Šiaurės Rytų
Temperatūra 16°C
Drėgmė 59%
Slėgis 1017 hPa
Matomumas 10 km arba daugiau
nėra debesų žemiau 1500 m ir nėra kamuolinių lietaus debesų

METAR: HECA 171800Z 02013KT CAVOK 16/08 Q1017 NOSIG

Laikas: 20:29 (18:29 UTC)

Prognozė

Ataskaita buvo paskelbta 1 valandą ir 29 minutes, ne 17:00 UTC
Prognozė galioja nuo 17 metu 18 UTC su 18 metu 24 UTC
Vėjas 13 kt iš Šiaurės/Šiaurės Rytų
Matomumas 10 km arba daugiau
Išsisklaidę debesys ne aukštis 2500 ft
Laikinai
nuo 18 metu 00 UTC su 18 metu 06 UTC
Vėjas 3 kt nuo kintamojo kryptimis
Matomumas: 2000 m
rūkana
Laikinai
nuo 18 metu 12 UTC su 18 metu 24 UTC
Vėjas 11 kt iš Šiaurės
Matomumas: 6000 m
Mažai debesys ne aukštis 2500 ft
Su prošvaistėmis ne aukštis 3000 ft
lietus

TAF: HECA 171700Z 1718/1824 02013KT 9999 SCT025 TEMPO 1800/1806 VRB03KT 2000 BR NSC TEMPO 1812/1824 35011KT 6000 RA FEW025 BKN030

Orai ataskaitas ir orų prognozės (METAR, TAF).

turimą stotys yra geltonos ir raudonos taškus žemėlapyje.

Perkelti pele per norėdami pamatyti stoties vardą.

Tada spustelėkite, norėdami matyti oro stebėjimo ir prognozės.

Norėdami pakeisti žemėlapį: spustelėkite ant žalios mygtukų su juodo kryžiaus žemyn,; žalią mygtuką su brūkšneliu, jei norite nutolinti; arba žalių rodyklių gretimoms žemėlapius.


METAR-TAF: